TGS weather

Tigre Airport
Cajeme, Sonora, Mexico

Public forecast

Using degrees Celsius for public forecast. Weather courtesy of forecast.io.

METAR (pilot weather report)

Closest report is Ciudad Obregón International Airport, 7.0 nm (12.9 km) E. Retrieved 2019/06/25 16:40 UTC (15 minutes ago):

MMCN 251640Z 16009KT 10SM SKC 33/07 A2985 RMK HZY

TAF (pilot weather forecast)

Forecast is more than 6 hours old.

Closest forecast is Ciudad Obregón International Airport, 7.0 nm (12.9 km) E. Retrieved 2019/06/25 06:23 UTC (11 hours ago):

TAF MMCN 250417Z 2506/2606 22005KT P6SM SKC FM251800 18010KT P6SM SCT250 FM260500 20005KT P6SM SKC